Oschatz, Germany

1:57 AM CET on February 06, 2016 (GMT +0100)
1 | | Change Station
CLOSE
Current Station
Personal Weather Station
Location: Oschatz, SACHSEN
Elevation: 433 ft
Nearby Weather Stations

Elev 433 ft 51.28 °N, 13.09 °E | Updated 22 seconds ago

Scattered Clouds
Scattered Clouds
42.8 °F
Feels Like 43 °F
N
0.0
Wind Variable Wind from SE
Gusts 0.0 mph

Today
High -- | Low -- °F
--% Chance of Precip.
Yesterday
High -- | Low -- °F
Precip. -- in
Pressure 30.15 in
Visibility 6.2 miles
Clouds Few 1500 ft
Scattered Clouds 3400 ft
Windchill 43 °F
Dew Point 42 °F
Humidity 96%
Rainfall 0.00 in
Snow Depth Not available.
7:38 AM 5:05 PM
Waning Crescent, 8% visible
METAR EDDC 060050Z 22009KT 9999 FEW015 SCT034 07/04 Q1021
Pressure 30.15 in
Visibility 6.2 miles
Clouds Few 1500 ft
Scattered Clouds 3400 ft
Windchill 43 °F
Dew Point 42 °F
Humidity 96%
Rainfall 0.00 in
Snow Depth Not available.
7:38 AM 5:05 PM
Waning Crescent, 8% visible
METAR EDDC 060050Z 22009KT 9999 FEW015 SCT034 07/04 Q1021

10-Day Weather Forecast

Almanac

Astronomy

Feb. 06, 2016 Rise Set
Actual Time
Civil Twilight
Nautical Twilight
Astronomical Twilight
Moon
Length of Visible Light
Length of Day
Tomorrow will be .
, % of the Moon is Illuminated

Today's Extremes

Country Highs Country Lows

Community

WunderPhotos

Upload Photos

1,890,900 photos uploaded!

WunderBlog® & News

Nearby

Air Quality

  Air Quality AQ Index Pollutant
Not available.

Snow Depth

Station Depth Elevation

Earthquake Activity

City Distance Mag. Time & Date
Minimum magnitude displayed is 2.5.

Coastal Water Temperatures

Place Temperature

Stations

Nearby Weather Stations

Station Location Temp. Windchill Dew Point Humidity Wind Precip. Elev Updated Type